Data for 12/22/2005

Time Sea-Level Adjusted Pressure Absolute Pressure Temperature Relative Humidity Dew Point   
(mb) (inHg) (mb) (inHg) (C) (F) (%) (C) (F)
00:05 1013 29.91 842 24.86 6.2 43.2 64 -0.1 31.7
00:10 1013 29.91 842 24.86 6.2 43.2 64 -0.1 31.8
00:15 1013 29.91 842 24.86 6.3 43.3 63 -0.3 31.5
00:20 1013 29.91 842 24.86 6.4 43.6 65 0.4 32.8
00:25 1013 29.91 842 24.86 6 42.8 64 -0.4 31.3
00:30 1013 29.91 842 24.86 6.4 43.6 61 -0.5 31.1
00:35 1013 29.91 842 24.86 7.1 44.7 60 -0.1 31.7
00:40 1013 29.91 842 24.86 7.4 45.3 58 -0.3 31.5
00:45 1012 29.88 841 24.83 6.6 43.9 65 0.5 33
00:50 1012 29.88 841 24.83 6.2 43.2 62 -0.4 31.2
00:55 1012 29.88 842 24.86 6.2 43.1 64 -0.1 31.9
01:00 1012 29.88 841 24.83 5.8 42.4 65 -0.3 31.5
01:05 1012 29.88 841 24.83 5.7 42.3 69 0.6 33
01:10 1012 29.88 841 24.83 6.2 43.1 62 -0.5 31
01:15 1012 29.88 841 24.83 7.2 44.9 58 -0.4 31.2
01:20 1012 29.88 841 24.83 7.7 45.8 63 1 33.8
01:25 1012 29.88 841 24.83 7 44.5 61 0 32
01:30 1012 29.88 841 24.83 6.8 44.2 61 -0.2 31.6
01:35 1012 29.88 841 24.83 7.2 45 59 -0.3 31.5
01:40 1012 29.88 841 24.83 7.5 45.5 57 -0.4 31.3
01:45 1012 29.88 841 24.83 7.9 46.2 58 0.2 32.4
01:50 1012 29.88 841 24.83 6.4 43.5 65 0.3 32.5
01:55 1012 29.88 841 24.83 5.7 42.3 65 -0.2 31.6
02:00 1012 29.88 841 24.83 5.8 42.4 65 -0.2 31.6
02:05 1011 29.85 841 24.83 5.8 42.5 65 -0.3 31.4
02:10 1011 29.85 841 24.83 6 42.8 64 -0.3 31.4
02:15 1011 29.85 841 24.83 6.3 43.3 63 -0.2 31.6
02:20 1011 29.85 840 24.81 6.3 43.3 63 -0.3 31.4
02:25 1011 29.85 840 24.81 6.9 44.4 59 -0.6 31
02:30 1011 29.85 840 24.81 7.8 46.1 55 -0.5 31
02:35 1011 29.85 840 24.81 8.3 46.9 55 -0.2 31.6
02:40 1011 29.85 840 24.81 8.5 47.3 55 -0.1 31.8
02:45 1011 29.85 840 24.81 8.3 47 55 -0.1 31.7
02:50 1011 29.85 840 24.81 8.2 46.7 55 -0.2 31.6
02:55 1011 29.85 840 24.81 7.1 44.7 63 0.4 32.8
03:00 1011 29.85 840 24.81 6.7 44.1 59 -0.6 30.9
03:05 1011 29.85 840 24.81 7.7 45.8 54 -1 30.2
03:10 1011 29.85 840 24.81 9.3 48.8 50 -0.6 31
03:15 1011 29.85 840 24.81 9.9 49.8 49 -0.3 31.5
03:20 1011 29.85 840 24.81 9.7 49.4 51 -0 32
03:25 1011 29.85 840 24.81 9.4 48.8 52 0.1 32.1
03:30 1011 29.85 840 24.81 9.8 49.6 52 0.4 32.7
03:35 1011 29.85 840 24.81 9.7 49.4 52 0.3 32.6
03:40 1011 29.85 840 24.81 9.6 49.3 54 0.8 33.5
03:45 1011 29.85 840 24.81 9.6 49.2 54 0.9 33.6
03:50 1011 29.85 840 24.81 9.5 49.1 56 1.2 34.1
03:55 1011 29.85 840 24.81 9.3 48.7 57 1.1 34
04:00 1011 29.85 840 24.81 9.2 48.5 57 1.2 34.2
04:05 1011 29.85 840 24.81 8.9 48.1 59 1.3 34.3
04:10 1011 29.85 840 24.81 8.6 47.5 60 1.2 34.2
04:15 1011 29.85 840 24.81 8.3 47 62 1.4 34.5
04:20 1011 29.85 840 24.81 7.7 45.9 64 1.3 34.4
04:25 1011 29.85 840 24.81 7.5 45.5 64 1.3 34.3
04:30 1011 29.85 840 24.81 7.3 45.2 66 1.4 34.5
04:35 1011 29.85 840 24.81 7.4 45.2 65 1.2 34.1
04:40 1011 29.85 840 24.81 7.6 45.6 65 1.4 34.6
04:45 1011 29.85 840 24.81 7.4 45.4 65 1.4 34.5
04:50 1011 29.85 840 24.81 7.3 45.2 66 1.4 34.5
04:55 1011 29.85 840 24.81 7.4 45.3 66 1.5 34.6
05:00 1011 29.85 840 24.81 7.5 45.5 66 1.6 34.8
05:05 1011 29.85 840 24.81 7.3 45.2 66 1.4 34.5
05:10 1011 29.85 840 24.81 7.3 45.1 65 1.1 34
05:15 1011 29.85 840 24.81 7.1 44.7 66 1.2 34.2
05:20 1011 29.85 840 24.81 6.8 44.3 66 1 33.9
05:25 1011 29.85 840 24.81 6.8 44.3 66 1 33.8
05:30 1011 29.85 840 24.81 6.7 44 68 1.2 34.2
05:35 1011 29.85 840 24.81 6.6 43.9 69 1.3 34.4
05:40 1011 29.85 840 24.81 6.7 44.1 70 1.7 35
05:45 1011 29.85 840 24.81 6.5 43.6 71 1.7 35
05:50 1011 29.85 840 24.81 6.2 43.1 72 1.6 34.9
05:55 1011 29.85 840 24.81 6 42.9 73 1.5 34.7
06:00 1011 29.85 840 24.81 6 42.8 73 1.5 34.8
06:05 1011 29.85 840 24.81 5.8 42.5 73 1.4 34.5
06:10 1011 29.85 840 24.81 5.8 42.5 73 1.4 34.6
06:15 1011 29.85 840 24.81 5.8 42.4 74 1.5 34.7
06:20 1011 29.85 840 24.81 5.8 42.5 74 1.5 34.7
06:25 1011 29.85 840 24.81 5.9 42.5 73 1.4 34.5
06:30 1011 29.85 840 24.81 6 42.9 73 1.5 34.7
06:35 1011 29.85 840 24.81 6 42.7 73 1.6 34.8
06:40 1011 29.85 840 24.81 6 42.9 73 1.6 34.8
06:45 1011 29.85 840 24.81 5.8 42.5 74 1.5 34.7
06:50 1011 29.85 840 24.81 5.5 41.9 76 1.5 34.8
06:55 1011 29.85 840 24.81 5.2 41.4 77 1.5 34.6
07:00 1011 29.85 841 24.83 5.2 41.3 77 1.4 34.5
07:05 1011 29.85 841 24.83 5.4 41.7 75 1.4 34.4
07:10 1012 29.88 841 24.83 5.3 41.5 76 1.5 34.7
07:15 1012 29.88 841 24.83 5.1 41.2 77 1.3 34.4
07:20 1012 29.88 841 24.83 5.2 41.4 76 1.4 34.6
07:25 1012 29.88 841 24.83 5.3 41.5 77 1.5 34.6
07:30 1012 29.88 841 24.83 5.5 41.9 76 1.5 34.8
07:35 1012 29.88 841 24.83 5.8 42.4 74 1.6 34.8
07:40 1012 29.88 841 24.83 5.9 42.6 73 1.5 34.7
07:45 1012 29.88 841 24.83 6.2 43.1 72 1.6 34.8
07:50 1012 29.88 841 24.83 6.6 43.8 69 1.4 34.5
07:55 1012 29.88 841 24.83 6.9 44.4 69 1.7 35
08:00 1012 29.88 841 24.83 6.8 44.3 69 1.7 35
08:05 1012 29.88 841 24.83 6.7 44.1 70 1.7 35.1
08:10 1012 29.88 841 24.83 6.6 43.8 71 1.7 35.1
08:15 1012 29.88 841 24.83 6.1 42.9 73 1.7 35
08:20 1012 29.88 841 24.83 6.2 43.1 73 1.6 34.9
08:25 1012 29.88 841 24.83 6.3 43.3 72 1.6 34.9
08:30 1012 29.88 841 24.83 6 42.7 73 1.6 34.8
08:35 1012 29.88 841 24.83 6.3 43.3 72 1.6 34.9
08:40 1012 29.88 841 24.83 6.5 43.7 71 1.6 34.9
08:45 1012 29.88 841 24.83 7.1 44.7 67 1.3 34.4
08:50 1012 29.88 841 24.83 7.4 45.2 67 1.6 35
08:55 1012 29.88 841 24.83 6.8 44.3 69 1.6 34.8
09:00 1012 29.88 842 24.86 6.4 43.5 70 1.4 34.4
09:05 1012 29.88 842 24.86 6.4 43.5 70 1.4 34.5
09:10 1012 29.88 842 24.86 6.5 43.7 69 1.2 34.1
09:15 1012 29.88 841 24.83 7 44.6 66 1 33.9
09:20 1012 29.88 841 24.83 7.4 45.2 64 1.1 34
09:25 1012 29.88 842 24.86 7.4 45.2 65 1.2 34.2
09:30 1012 29.88 842 24.86 7.3 45.1 65 1.1 34
09:35 1012 29.88 842 24.86 7.2 45 65 1.1 33.9
09:40 1013 29.91 842 24.86 7.2 45 64 1 33.8
09:45 1013 29.91 842 24.86 7.3 45.1 65 1.1 33.9
09:50 1013 29.91 842 24.86 7.2 44.9 64 0.9 33.6
09:55 1013 29.91 842 24.86 7.2 44.9 64 0.8 33.4
10:00 1013 29.91 842 24.86 7.2 44.9 63 0.5 33
10:05 1013 29.91 842 24.86 7.4 45.3 61 0.3 32.6
10:10 1012 29.88 842 24.86 7.6 45.6 61 0.4 32.8
10:15 1012 29.88 842 24.86 7.6 45.7 60 0.3 32.6
10:20 1012 29.88 842 24.86 7.6 45.7 60 0.3 32.6
10:25 1012 29.88 842 24.86 7.8 46 59 0.2 32.4
10:30 1012 29.88 842 24.86 8 46.4 59 0.5 32.9
10:35 1012 29.88 842 24.86 8.1 46.5 59 0.7 33.2
10:40 1012 29.88 841 24.83 7.8 46 61 0.7 33.3
10:45 1012 29.88 841 24.83 8 46.3 60 0.7 33.2
10:50 1012 29.88 841 24.83 8.3 47 58 0.5 32.9
10:55 1012 29.88 841 24.83 8.8 47.9 56 0.5 33
11:00 1012 29.88 841 24.83 9.2 48.6 54 0.5 33
11:05 1012 29.88 842 24.86 9.5 49.1 54 0.8 33.5
11:10 1012 29.88 842 24.86 9.4 49 54 0.7 33.3
11:15 1012 29.88 842 24.86 9.2 48.6 55 0.7 33.2
11:20 1012 29.88 842 24.86 9.2 48.5 54 0.5 32.9
11:25 1012 29.88 842 24.86 9.3 48.7 54 0.6 33
11:30 1013 29.91 842 24.86 9.5 49.1 54 0.6 33.1
11:35 1012 29.88 842 24.86 9.7 49.4 53 0.6 33.1
11:40 1012 29.88 842 24.86 9.8 49.6 51 0.3 32.5
11:45 1012 29.88 842 24.86 9.7 49.4 53 0.5 32.9
11:50 1012 29.88 842 24.86 9.6 49.4 51 -0.1 31.9
11:55 1012 29.88 842 24.86 9.5 49.2 52 0.1 32.2
12:00 1012 29.88 842 24.86 9.3 48.8 52 -0.1 31.9
12:05 1012 29.88 842 24.86 9.2 48.6 52 -0.2 31.7
12:10 1012 29.88 842 24.86 9.2 48.5 51 -0.4 31.2
12:15 1012 29.88 842 24.86 9.3 48.7 49 -0.7 30.7
12:20 1012 29.88 841 24.83 9.5 49 49 -0.7 30.8
12:25 1012 29.88 841 24.83 9.7 49.4 46 -1.4 29.5
12:30 1012 29.88 841 24.83 10.1 50.2 46 -0.9 30.3
12:35 1012 29.88 841 24.83 10.2 50.4 44 -1.3 29.6
12:40 1012 29.88 841 24.83 10.2 50.4 44 -1.5 29.3
12:45 1012 29.88 841 24.83 9.9 49.9 45 -1.3 29.7
12:50 1012 29.88 841 24.83 9.9 49.9 45 -1.4 29.5
12:55 1012 29.88 841 24.83 9.8 49.6 46 -1.4 29.5
13:00 1012 29.88 841 24.83 9.7 49.4 45 -1.6 29.1
13:05 1012 29.88 841 24.83 9.8 49.7 45 -1.4 29.5
13:10 1012 29.88 841 24.83 9.8 49.7 46 -1.4 29.6
13:15 1012 29.88 841 24.83 9.8 49.6 45 -1.6 29.1
13:20 1012 29.88 841 24.83 9.8 49.7 44 -1.7 28.9
13:25 1012 29.88 841 24.83 10 50 43 -2.1 28.2
13:30 1012 29.88 841 24.83 10.1 50.1 43 -1.8 28.8
13:35 1012 29.88 841 24.83 10.1 50.2 43 -1.8 28.7
13:40 1011 29.85 841 24.83 10.2 50.3 43 -1.8 28.8
13:45 1011 29.85 841 24.83 10.1 50.1 44 -1.7 28.9
13:50 1011 29.85 840 24.81 9.9 49.9 44 -1.6 29.1
13:55 1011 29.85 840 24.81 9.8 49.7 44 -1.9 28.6
14:00 1011 29.85 840 24.81 9.9 49.8 44 -1.9 28.6
14:05 1011 29.85 840 24.81 10.1 50.1 43 -1.9 28.6
14:10 1011 29.85 840 24.81 10.7 51.2 40 -2.3 27.9
14:15 1011 29.85 840 24.81 10.9 51.6 40 -2.2 28
14:20 1011 29.85 840 24.81 11.2 52.2 39 -2 28.3
14:25 1011 29.85 840 24.81 11.3 52.3 40 -1.9 28.6
14:30 1011 29.85 840 24.81 11 51.8 40 -1.9 28.6
14:35 1011 29.85 840 24.81 10.8 51.4 40 -2.3 27.9
14:40 1011 29.85 840 24.81 10.8 51.4 41 -1.9 28.7
14:45 1011 29.85 840 24.81 10.7 51.2 40 -2.3 27.8
14:50 1011 29.85 840 24.81 10.1 50.1 45 -1.1 30
14:55 1011 29.85 840 24.81 9 48.3 46 -2 28.5
15:00 1011 29.85 840 24.81 9.3 48.7 44 -2.2 28
15:05 1011 29.85 840 24.81 9.7 49.5 42 -2.4 27.7
15:10 1011 29.85 840 24.81 9.9 49.9 42 -2.4 27.7
15:15 1011 29.85 840 24.81 10 49.9 43 -2.1 28.2
15:20 1011 29.85 840 24.81 9.7 49.5 44 -2 28.4
15:25 1011 29.85 840 24.81 9.5 49.1 44 -2.3 27.9
15:30 1011 29.85 840 24.81 9 48.2 47 -1.6 29.1
15:35 1011 29.85 840 24.81 8.4 47.1 46 -2.4 27.6
15:40 1011 29.85 840 24.81 8.8 47.9 44 -2.7 27.1
15:45 1011 29.85 840 24.81 9.3 48.7 42 -2.8 26.9
15:50 1011 29.85 840 24.81 9.5 49.1 43 -2.5 27.5
15:55 1011 29.85 840 24.81 9.4 49 43 -2.3 27.8
16:00 1011 29.85 840 24.81 9.5 49 44 -2.3 27.9
16:05 1011 29.85 840 24.81 9.3 48.8 44 -2.1 28.1
16:10 1011 29.85 840 24.81 9 48.2 45 -2.3 27.9
16:15 1011 29.85 840 24.81 9 48.2 44 -2.6 27.4
16:20 1011 29.85 840 24.81 9 48.3 45 -2.3 27.8
16:25 1011 29.85 840 24.81 8.9 47.9 45 -2.3 27.9
16:30 1011 29.85 840 24.81 8.8 47.9 46 -2.2 28
16:35 1011 29.85 841 24.83 8.7 47.7 47 -1.8 28.7
16:40 1011 29.85 841 24.83 8.3 46.9 48 -2.2 28.1
16:45 1011 29.85 840 24.81 8.4 47.2 48 -1.9 28.5
16:50 1011 29.85 840 24.81 8.5 47.4 48 -1.8 28.8
16:55 1011 29.85 840 24.81 8.6 47.4 47 -2 28.5
17:00 1011 29.85 840 24.81 8.3 46.9 49 -1.8 28.8
17:05 1011 29.85 840 24.81 8.3 46.9 48 -2.1 28.3
17:10 1011 29.85 840 24.81 8.4 47.1 48 -2.1 28.3
17:15 1011 29.85 840 24.81 8.4 47.1 48 -1.9 28.5
17:20 1011 29.85 840 24.81 8.5 47.3 48 -1.9 28.6
17:25 1011 29.85 840 24.81 8.6 47.5 47 -1.9 28.5
17:30 1011 29.85 840 24.81 8.5 47.4 49 -1.7 29
17:35 1011 29.85 840 24.81 7.9 46.3 53 -1.1 30.1
17:40 1011 29.85 840 24.81 7.2 45 54 -1.6 29.2
17:45 1011 29.85 840 24.81 6.9 44.5 54 -1.7 29
17:50 1011 29.85 840 24.81 7.2 44.9 53 -1.7 29
17:55 1011 29.85 840 24.81 7.3 45.2 54 -1.3 29.6
18:00 1011 29.85 840 24.81 7.2 45 53 -1.6 29.1
18:05 1011 29.85 840 24.81 7.2 44.9 55 -1.2 29.9
18:10 1011 29.85 840 24.81 7.1 44.8 54 -1.5 29.3
18:15 1011 29.85 840 24.81 7.4 45.2 52 -1.7 28.9
18:20 1011 29.85 840 24.81 7.5 45.5 52 -1.6 29.2
18:25 1011 29.85 840 24.81 7.6 45.6 53 -1.3 29.6
18:30 1011 29.85 840 24.81 7.2 44.9 53 -1.7 29
18:35 1011 29.85 840 24.81 7.4 45.4 52 -1.7 28.9
18:40 1011 29.85 840 24.81 7.5 45.5 52 -1.6 29.1
18:45 1011 29.85 840 24.81 7.9 46.2 50 -1.8 28.8
18:50 1011 29.85 840 24.81 8.1 46.5 50 -1.8 28.7
18:55 1011 29.85 840 24.81 8.4 47.1 48 -2.1 28.3
19:00 1011 29.85 840 24.81 8.9 48 47 -1.7 28.9
19:05 1011 29.85 840 24.81 8.5 47.3 48 -1.8 28.8
19:10 1011 29.85 840 24.81 8.5 47.3 49 -1.6 29.1
19:15 1011 29.85 840 24.81 8.5 47.3 48 -1.9 28.6
19:20 1011 29.85 840 24.81 8.4 47.1 51 -1.1 30.1
19:25 1011 29.85 840 24.81 8 46.5 53 -0.9 30.3
19:30 1011 29.85 840 24.81 7.8 46 51 -1.8 28.8
19:35 1011 29.85 840 24.81 8.2 46.8 50 -1.5 29.3
19:40 1011 29.85 840 24.81 8.3 46.9 49 -1.8 28.8
19:45 1011 29.85 840 24.81 7.8 46 53 -1.1 30.1
19:50 1011 29.85 840 24.81 7.6 45.7 53 -1.3 29.6
19:55 1011 29.85 840 24.81 7.7 45.9 53 -1.2 29.8
20:00 1011 29.85 840 24.81 8 46.4 50 -1.7 29
20:05 1011 29.85 840 24.81 8.3 46.9 50 -1.4 29.4
20:10 1011 29.85 840 24.81 8.1 46.6 52 -1.1 30
20:15 1011 29.85 840 24.81 7.8 46.1 52 -1.3 29.6
20:20 1011 29.85 840 24.81 8 46.5 52 -1.3 29.7
20:25 1011 29.85 840 24.81 8.1 46.6 50 -1.5 29.3
20:30 1011 29.85 840 24.81 8.6 47.4 50 -1.2 29.8
20:35 1011 29.85 840 24.81 8.4 47.2 52 -0.9 30.5
20:40 1011 29.85 840 24.81 8.1 46.5 52 -1.1 30
20:45 1011 29.85 840 24.81 7.6 45.7 53 -1.3 29.7
20:50 1010 29.83 840 24.81 7.8 46.1 53 -1.1 30.1
20:55 1010 29.83 840 24.81 7.8 46 53 -1.3 29.7
21:00 1010 29.83 840 24.81 7.9 46.2 53 -1.2 29.9
21:05 1010 29.83 840 24.81 7.8 46.1 54 -0.9 30.3
21:10 1010 29.83 839 24.78 7.6 45.7 54 -1.1 30
21:15 1010 29.83 840 24.81 7.5 45.5 55 -0.9 30.4
21:20 1010 29.83 840 24.81 7.2 44.9 58 -0.6 30.9
21:25 1010 29.83 839 24.78 6.7 44.1 58 -0.8 30.5
21:30 1010 29.83 839 24.78 6.5 43.7 58 -1.1 30.1
21:35 1010 29.83 839 24.78 6.7 44.1 57 -1.2 29.8
21:40 1010 29.83 839 24.78 7 44.6 56 -1.2 29.8
21:45 1010 29.83 839 24.78 7.5 45.5 53 -1.3 29.6
21:50 1010 29.83 839 24.78 8 46.4 53 -0.9 30.3
21:55 1010 29.83 839 24.78 7.4 45.2 57 -0.7 30.8
22:00 1010 29.83 839 24.78 6.8 44.2 57 -1.2 29.9
22:05 1010 29.83 839 24.78 6.8 44.2 57 -1.3 29.7
22:10 1010 29.83 839 24.78 6.8 44.2 57 -1 30.1
22:15 1010 29.83 839 24.78 6.9 44.4 57 -1 30.3
22:20 1010 29.83 839 24.78 6.8 44.2 58 -0.9 30.4
22:25 1010 29.83 839 24.78 7.1 44.7 57 -0.8 30.5
22:30 1010 29.83 839 24.78 7.3 45.1 56 -0.8 30.6
22:35 1010 29.83 839 24.78 7.4 45.2 57 -0.6 30.8
22:40 1010 29.83 839 24.78 7.4 45.3 57 -0.7 30.8
22:45 1010 29.83 839 24.78 7.5 45.5 55 -0.9 30.3
22:50 1010 29.83 839 24.78 8 46.4 53 -0.9 30.3
22:55 1010 29.83 839 24.78 8.4 47.1 52 -0.8 30.6
23:00 1010 29.83 839 24.78 8.5 47.4 51 -1 30.3
23:05 1010 29.83 839 24.78 8.9 48 51 -0.8 30.6
23:10 1010 29.83 839 24.78 8.8 47.9 51 -0.6 30.9
23:15 1010 29.83 839 24.78 8.7 47.7 51 -0.8 30.6
23:20 1010 29.83 839 24.78 8.8 47.8 51 -0.8 30.5
23:25 1010 29.83 839 24.78 8.8 47.8 51 -0.8 30.5
23:30 1010 29.83 839 24.78 8.8 47.8 52 -0.6 30.9
23:35 1010 29.83 839 24.78 8.7 47.6 52 -0.6 30.9
23:40 1010 29.83 839 24.78 8.5 47.4 52 -0.7 30.8
23:45 1010 29.83 839 24.78 8.5 47.2 53 -0.6 30.9
23:50 1010 29.83 839 24.78 8.3 47 53 -0.6 30.9
23:55 1010 29.83 839 24.78 8.3 47 53 -0.6 30.9
24:00 1010 29.83 839 24.78 8.3 46.9 54 -0.6 30.9